sensor_id;sensor_type;location;lat;lon;timestamp;temperature;humidity
47757;SHT35;22147;52.388;13.390;2022-11-15T00:00:03;4.26;95.35
47757;SHT35;22147;52.388;13.390;2022-11-15T00:02:33;4.24;95.35
47757;SHT35;22147;52.388;13.390;2022-11-15T00:05:03;4.22;95.31
47757;SHT35;22147;52.388;13.390;2022-11-15T00:07:34;4.15;95.31
47757;SHT35;22147;52.388;13.390;2022-11-15T00:10:22;4.18;95.30
47757;SHT35;22147;52.388;13.390;2022-11-15T00:12:50;4.18;95.28
47757;SHT35;22147;52.388;13.390;2022-11-15T00:15:19;4.15;95.26
47757;SHT35;22147;52.388;13.390;2022-11-15T00:17:50;4.12;95.26
47757;SHT35;22147;52.388;13.390;2022-11-15T00:20:20;4.12;95.24
47757;SHT35;22147;52.388;13.390;2022-11-15T00:22:50;4.09;95.25
47757;SHT35;22147;52.388;13.390;2022-11-15T00:25:21;4.11;95.26
47757;SHT35;22147;52.388;13.390;2022-11-15T00:27:56;4.07;95.23
47757;SHT35;22147;52.388;13.390;2022-11-15T00:30:28;4.07;95.19
47757;SHT35;22147;52.388;13.390;2022-11-15T00:33:06;4.05;95.20
47757;SHT35;22147;52.388;13.390;2022-11-15T00:35:36;4.04;95.21
47757;SHT35;22147;52.388;13.390;2022-11-15T00:38:07;4.04;95.24
47757;SHT35;22147;52.388;13.390;2022-11-15T00:40:37;3.99;95.17
47757;SHT35;22147;52.388;13.390;2022-11-15T00:43:07;3.94;95.11
47757;SHT35;22147;52.388;13.390;2022-11-15T00:45:35;3.88;95.01
47757;SHT35;22147;52.388;13.390;2022-11-15T00:48:04;3.87;94.99
47757;SHT35;22147;52.388;13.390;2022-11-15T00:50:32;3.87;95.00
47757;SHT35;22147;52.388;13.390;2022-11-15T00:53:00;3.87;95.02
47757;SHT35;22147;52.388;13.390;2022-11-15T00:55:29;3.81;94.96
47757;SHT35;22147;52.388;13.390;2022-11-15T00:57:57;3.81;94.89
47757;SHT35;22147;52.388;13.390;2022-11-15T01:00:26;3.77;94.89
47757;SHT35;22147;52.388;13.390;2022-11-15T01:02:54;3.73;94.81
47757;SHT35;22147;52.388;13.390;2022-11-15T01:05:26;3.71;94.81
47757;SHT35;22147;52.388;13.390;2022-11-15T01:07:56;3.67;94.77
47757;SHT35;22147;52.388;13.390;2022-11-15T01:10:26;3.67;94.75
47757;SHT35;22147;52.388;13.390;2022-11-15T01:12:57;3.63;94.70
47757;SHT35;22147;52.388;13.390;2022-11-15T01:15:27;3.62;94.66
47757;SHT35;22147;52.388;13.390;2022-11-15T01:17:57;3.62;94.67
47757;SHT35;22147;52.388;13.390;2022-11-15T01:20:27;3.60;94.71
47757;SHT35;22147;52.388;13.390;2022-11-15T01:23:00;3.59;94.63
47757;SHT35;22147;52.388;13.390;2022-11-15T01:25:30;3.57;94.61
47757;SHT35;22147;52.388;13.390;2022-11-15T01:28:00;3.57;94.59
47757;SHT35;22147;52.388;13.390;2022-11-15T01:30:30;3.56;94.53
47757;SHT35;22147;52.388;13.390;2022-11-15T01:33:01;3.52;94.54
47757;SHT35;22147;52.388;13.390;2022-11-15T01:35:31;3.56;94.52
47757;SHT35;22147;52.388;13.390;2022-11-15T01:38:02;3.53;94.47
47757;SHT35;22147;52.388;13.390;2022-11-15T01:40:32;3.53;94.43
47757;SHT35;22147;52.388;13.390;2022-11-15T01:43:35;3.47;94.41
47757;SHT35;22147;52.388;13.390;2022-11-15T01:49:01;3.50;94.42
47757;SHT35;22147;52.388;13.390;2022-11-15T01:51:33;3.49;94.43
47757;SHT35;22147;52.388;13.390;2022-11-15T01:54:16;3.49;94.38
47757;SHT35;22147;52.388;13.390;2022-11-15T01:57:06;3.44;94.38
47757;SHT35;22147;52.388;13.390;2022-11-15T01:59:43;3.43;94.33
47757;SHT35;22147;52.388;13.390;2022-11-15T02:02:13;3.42;94.34
47757;SHT35;22147;52.388;13.390;2022-11-15T02:04:46;3.38;94.33
47757;SHT35;22147;52.388;13.390;2022-11-15T02:07:20;3.38;94.35
47757;SHT35;22147;52.388;13.390;2022-11-15T02:09:52;3.38;94.30
47757;SHT35;22147;52.388;13.390;2022-11-15T02:12:23;3.32;94.27
47757;SHT35;22147;52.388;13.390;2022-11-15T02:14:55;3.30;94.25
47757;SHT35;22147;52.388;13.390;2022-11-15T02:18:19;3.26;94.20
47757;SHT35;22147;52.388;13.390;2022-11-15T02:21:42;3.28;94.22
47757;SHT35;22147;52.388;13.390;2022-11-15T02:27:58;3.22;94.19
47757;SHT35;22147;52.388;13.390;2022-11-15T02:30:58;3.19;94.17
47757;SHT35;22147;52.388;13.390;2022-11-15T02:37:10;3.16;94.16
47757;SHT35;22147;52.388;13.390;2022-11-15T02:42:46;3.16;94.06
47757;SHT35;22147;52.388;13.390;2022-11-15T02:45:54;3.15;94.05
47757;SHT35;22147;52.388;13.390;2022-11-15T02:48:27;3.15;94.10
47757;SHT35;22147;52.388;13.390;2022-11-15T02:50:57;3.13;94.14
47757;SHT35;22147;52.388;13.390;2022-11-15T02:53:28;3.16;94.13
47757;SHT35;22147;52.388;13.390;2022-11-15T02:55:58;3.16;94.11
47757;SHT35;22147;52.388;13.390;2022-11-15T03:04:47;3.15;94.11
47757;SHT35;22147;52.388;13.390;2022-11-15T03:14:10;3.13;94.09
47757;SHT35;22147;52.388;13.390;2022-11-15T03:17:16;3.07;94.07
47757;SHT35;22147;52.388;13.390;2022-11-15T03:19:58;3.09;94.06
47757;SHT35;22147;52.388;13.390;2022-11-15T03:22:43;3.01;94.14
47757;SHT35;22147;52.388;13.390;2022-11-15T03:25:24;3.01;94.15
47757;SHT35;22147;52.388;13.390;2022-11-15T03:28:05;2.95;94.19
47757;SHT35;22147;52.388;13.390;2022-11-15T03:30:40;2.99;94.25
47757;SHT35;22147;52.388;13.390;2022-11-15T03:33:11;2.99;94.32
47757;SHT35;22147;52.388;13.390;2022-11-15T03:35:47;3.04;94.32
47757;SHT35;22147;52.388;13.390;2022-11-15T03:38:34;3.05;94.33
47757;SHT35;22147;52.388;13.390;2022-11-15T03:41:43;3.07;94.34
47757;SHT35;22147;52.388;13.390;2022-11-15T03:44:51;3.04;94.30
47757;SHT35;22147;52.388;13.390;2022-11-15T03:47:42;2.99;94.26
47757;SHT35;22147;52.388;13.390;2022-11-15T03:50:22;2.97;94.26
47757;SHT35;22147;52.388;13.390;2022-11-15T03:52:55;2.99;94.26
47757;SHT35;22147;52.388;13.390;2022-11-15T03:55:24;3.02;94.38
47757;SHT35;22147;52.388;13.390;2022-11-15T03:57:59;3.05;94.42
47757;SHT35;22147;52.388;13.390;2022-11-15T04:00:29;3.05;94.45
47757;SHT35;22147;52.388;13.390;2022-11-15T04:02:59;3.04;94.47
47757;SHT35;22147;52.388;13.390;2022-11-15T04:05:29;3.01;94.47
47757;SHT35;22147;52.388;13.390;2022-11-15T04:07:58;2.98;94.43
47757;SHT35;22147;52.388;13.390;2022-11-15T04:10:28;2.98;94.42
47757;SHT35;22147;52.388;13.390;2022-11-15T04:12:58;2.99;94.40
47757;SHT35;22147;52.388;13.390;2022-11-15T04:15:31;2.98;94.41
47757;SHT35;22147;52.388;13.390;2022-11-15T04:18:01;2.94;94.38
47757;SHT35;22147;52.388;13.390;2022-11-15T04:20:32;2.95;94.35
47757;SHT35;22147;52.388;13.390;2022-11-15T04:23:38;2.94;94.38
47757;SHT35;22147;52.388;13.390;2022-11-15T04:26:27;2.92;94.38
47757;SHT35;22147;52.388;13.390;2022-11-15T04:28:55;2.90;94.35
47757;SHT35;22147;52.388;13.390;2022-11-15T04:31:44;2.91;94.35
47757;SHT35;22147;52.388;13.390;2022-11-15T04:34:14;2.92;94.41
47757;SHT35;22147;52.388;13.390;2022-11-15T04:36:44;2.90;94.37
47757;SHT35;22147;52.388;13.390;2022-11-15T04:39:33;2.92;94.39
47757;SHT35;22147;52.388;13.390;2022-11-15T04:42:05;2.94;94.40
47757;SHT35;22147;52.388;13.390;2022-11-15T04:44:38;2.94;94.39
47757;SHT35;22147;52.388;13.390;2022-11-15T04:47:08;2.91;94.37
47757;SHT35;22147;52.388;13.390;2022-11-15T04:49:39;2.94;94.38
47757;SHT35;22147;52.388;13.390;2022-11-15T04:52:09;2.97;94.38
47757;SHT35;22147;52.388;13.390;2022-11-15T04:54:40;2.97;94.38
47757;SHT35;22147;52.388;13.390;2022-11-15T04:57:12;2.94;94.38
47757;SHT35;22147;52.388;13.390;2022-11-15T04:59:42;2.91;94.36
47757;SHT35;22147;52.388;13.390;2022-11-15T05:02:10;2.94;94.35
47757;SHT35;22147;52.388;13.390;2022-11-15T05:04:40;2.99;94.46
47757;SHT35;22147;52.388;13.390;2022-11-15T05:07:07;3.04;94.55
47757;SHT35;22147;52.388;13.390;2022-11-15T05:09:36;3.08;94.67
47757;SHT35;22147;52.388;13.390;2022-11-15T05:12:06;3.08;94.72
47757;SHT35;22147;52.388;13.390;2022-11-15T05:14:39;3.04;94.76
47757;SHT35;22147;52.388;13.390;2022-11-15T05:17:09;2.99;94.76
47757;SHT35;22147;52.388;13.390;2022-11-15T05:19:39;2.98;94.74
47757;SHT35;22147;52.388;13.390;2022-11-15T05:22:10;2.95;94.75
47757;SHT35;22147;52.388;13.390;2022-11-15T05:24:40;2.95;94.77
47757;SHT35;22147;52.388;13.390;2022-11-15T05:27:10;2.94;94.79
47757;SHT35;22147;52.388;13.390;2022-11-15T05:29:40;2.92;94.76
47757;SHT35;22147;52.388;13.390;2022-11-15T05:32:12;2.92;94.77
47757;SHT35;22147;52.388;13.390;2022-11-15T05:34:43;2.91;94.83
47757;SHT35;22147;52.388;13.390;2022-11-15T05:37:16;2.88;94.80
47757;SHT35;22147;52.388;13.390;2022-11-15T05:39:46;2.87;94.81
47757;SHT35;22147;52.388;13.390;2022-11-15T05:42:17;2.84;94.78
47757;SHT35;22147;52.388;13.390;2022-11-15T05:44:50;2.83;94.79
47757;SHT35;22147;52.388;13.390;2022-11-15T05:47:28;2.83;94.76
47757;SHT35;22147;52.388;13.390;2022-11-15T05:49:59;2.85;94.81
47757;SHT35;22147;52.388;13.390;2022-11-15T05:52:36;2.81;94.82
47757;SHT35;22147;52.388;13.390;2022-11-15T05:55:09;2.83;94.84
47757;SHT35;22147;52.388;13.390;2022-11-15T05:57:40;2.81;94.83
47757;SHT35;22147;52.388;13.390;2022-11-15T06:00:12;2.80;94.80
47757;SHT35;22147;52.388;13.390;2022-11-15T06:02:43;2.77;94.78
47757;SHT35;22147;52.388;13.390;2022-11-15T06:05:14;2.80;94.79
47757;SHT35;22147;52.388;13.390;2022-11-15T06:07:44;2.76;94.78
47757;SHT35;22147;52.388;13.390;2022-11-15T06:10:15;2.78;94.77
47757;SHT35;22147;52.388;13.390;2022-11-15T06:12:43;2.80;94.79
47757;SHT35;22147;52.388;13.390;2022-11-15T06:15:11;2.81;94.81
47757;SHT35;22147;52.388;13.390;2022-11-15T06:17:40;2.81;94.79
47757;SHT35;22147;52.388;13.390;2022-11-15T06:20:09;2.87;94.85
47757;SHT35;22147;52.388;13.390;2022-11-15T06:22:37;2.85;94.86
47757;SHT35;22147;52.388;13.390;2022-11-15T06:25:06;2.92;94.91
47757;SHT35;22147;52.388;13.390;2022-11-15T06:27:34;2.94;94.95
47757;SHT35;22147;52.388;13.390;2022-11-15T06:30:02;2.95;94.99
47757;SHT35;22147;52.388;13.390;2022-11-15T06:32:31;2.98;95.06
47757;SHT35;22147;52.388;13.390;2022-11-15T06:34:59;3.02;95.05
47757;SHT35;22147;52.388;13.390;2022-11-15T06:37:27;3.01;95.06
47757;SHT35;22147;52.388;13.390;2022-11-15T06:39:56;3.08;95.11
47757;SHT35;22147;52.388;13.390;2022-11-15T06:42:24;3.08;95.15
47757;SHT35;22147;52.388;13.390;2022-11-15T06:44:53;3.09;95.11
47757;SHT35;22147;52.388;13.390;2022-11-15T06:47:21;3.13;95.14
47757;SHT35;22147;52.388;13.390;2022-11-15T06:49:49;3.18;95.18
47757;SHT35;22147;52.388;13.390;2022-11-15T06:52:18;3.20;95.21
47757;SHT35;22147;52.388;13.390;2022-11-15T06:54:46;3.22;95.22
47757;SHT35;22147;52.388;13.390;2022-11-15T06:57:15;3.20;95.23
47757;SHT35;22147;52.388;13.390;2022-11-15T06:59:43;3.23;95.21
47757;SHT35;22147;52.388;13.390;2022-11-15T07:02:13;3.26;95.24
47757;SHT35;22147;52.388;13.390;2022-11-15T07:04:43;3.32;95.28
47757;SHT35;22147;52.388;13.390;2022-11-15T07:07:11;3.35;95.32
47757;SHT35;22147;52.388;13.390;2022-11-15T07:09:40;3.36;95.35
47757;SHT35;22147;52.388;13.390;2022-11-15T07:12:10;3.40;95.35
47757;SHT35;22147;52.388;13.390;2022-11-15T07:14:43;3.46;95.41
47757;SHT35;22147;52.388;13.390;2022-11-15T07:17:13;3.49;95.43
47757;SHT35;22147;52.388;13.390;2022-11-15T07:19:43;3.53;95.48
47757;SHT35;22147;52.388;13.390;2022-11-15T07:26:08;3.67;95.59
47757;SHT35;22147;52.388;13.390;2022-11-15T07:28:39;3.77;95.69
47757;SHT35;22147;52.388;13.390;2022-11-15T07:31:10;3.93;95.76
47757;SHT35;22147;52.388;13.390;2022-11-15T07:33:40;4.02;95.83
47757;SHT35;22147;52.388;13.390;2022-11-15T07:36:11;4.12;95.84
47757;SHT35;22147;52.388;13.390;2022-11-15T07:38:41;4.18;95.88
47757;SHT35;22147;52.388;13.390;2022-11-15T07:41:12;4.29;95.93
47757;SHT35;22147;52.388;13.390;2022-11-15T07:43:42;4.34;95.94
47757;SHT35;22147;52.388;13.390;2022-11-15T07:46:12;4.44;95.95
47757;SHT35;22147;52.388;13.390;2022-11-15T07:48:42;4.52;95.99
47757;SHT35;22147;52.388;13.390;2022-11-15T07:51:16;4.59;96.02
47757;SHT35;22147;52.388;13.390;2022-11-15T07:53:46;4.65;96.02
47757;SHT35;22147;52.388;13.390;2022-11-15T07:56:17;4.72;96.01
47757;SHT35;22147;52.388;13.390;2022-11-15T07:58:46;4.83;96.03
47757;SHT35;22147;52.388;13.390;2022-11-15T08:01:17;4.90;96.02
47757;SHT35;22147;52.388;13.390;2022-11-15T08:03:47;4.97;95.97
47757;SHT35;22147;52.388;13.390;2022-11-15T08:06:17;5.08;96.01
47757;SHT35;22147;52.388;13.390;2022-11-15T08:08:47;5.14;95.94
47757;SHT35;22147;52.388;13.390;2022-11-15T08:11:17;5.22;95.85
47757;SHT35;22147;52.388;13.390;2022-11-15T08:13:47;5.36;95.90
47757;SHT35;22147;52.388;13.390;2022-11-15T08:16:17;5.42;95.78
47757;SHT35;22147;52.388;13.390;2022-11-15T08:18:46;5.48;95.61
47757;SHT35;22147;52.388;13.390;2022-11-15T08:21:20;5.58;95.58
47757;SHT35;22147;52.388;13.390;2022-11-15T08:23:49;5.66;95.45
47757;SHT35;22147;52.388;13.390;2022-11-15T08:26:19;5.73;95.37
47757;SHT35;22147;52.388;13.390;2022-11-15T08:28:49;5.80;95.34
47757;SHT35;22147;52.388;13.390;2022-11-15T08:31:19;5.90;95.29
47757;SHT35;22147;52.388;13.390;2022-11-15T08:33:49;6.04;95.20
47757;SHT35;22147;52.388;13.390;2022-11-15T08:36:19;6.22;95.12
47757;SHT35;22147;52.388;13.390;2022-11-15T08:38:49;6.27;94.97
47757;SHT35;22147;52.388;13.390;2022-11-15T08:41:34;6.44;94.80
47757;SHT35;22147;52.388;13.390;2022-11-15T08:44:04;6.64;94.63
47757;SHT35;22147;52.388;13.390;2022-11-15T08:46:34;6.78;94.28
47757;SHT35;22147;52.388;13.390;2022-11-15T08:49:04;6.95;93.91
47757;SHT35;22147;52.388;13.390;2022-11-15T08:51:34;7.06;93.46
47757;SHT35;22147;52.388;13.390;2022-11-15T08:54:04;7.20;93.01
47757;SHT35;22147;52.388;13.390;2022-11-15T08:56:34;7.40;92.83
47757;SHT35;22147;52.388;13.390;2022-11-15T08:59:04;7.48;92.18
47757;SHT35;22147;52.388;13.390;2022-11-15T09:01:35;7.57;91.82
47757;SHT35;22147;52.388;13.390;2022-11-15T09:04:05;7.69;91.55
47757;SHT35;22147;52.388;13.390;2022-11-15T09:06:35;7.69;90.99
47757;SHT35;22147;52.388;13.390;2022-11-15T09:09:11;7.72;90.90
47757;SHT35;22147;52.388;13.390;2022-11-15T09:11:41;7.76;90.32
47757;SHT35;22147;52.388;13.390;2022-11-15T09:14:14;7.81;90.39
47757;SHT35;22147;52.388;13.390;2022-11-15T09:16:44;7.86;90.34
47757;SHT35;22147;52.388;13.390;2022-11-15T09:19:14;8.03;89.80
47757;SHT35;22147;52.388;13.390;2022-11-15T09:21:45;8.10;89.60
47757;SHT35;22147;52.388;13.390;2022-11-15T09:24:15;8.16;89.16
47757;SHT35;22147;52.388;13.390;2022-11-15T09:26:45;8.26;89.28
47757;SHT35;22147;52.388;13.390;2022-11-15T09:29:15;8.37;88.81
47757;SHT35;22147;52.388;13.390;2022-11-15T09:31:45;8.48;87.74
47757;SHT35;22147;52.388;13.390;2022-11-15T09:34:16;8.51;88.20
47757;SHT35;22147;52.388;13.390;2022-11-15T09:36:44;8.69;88.12
47757;SHT35;22147;52.388;13.390;2022-11-15T09:39:12;8.84;87.85
47757;SHT35;22147;52.388;13.390;2022-11-15T09:45:26;9.44;86.50
47757;SHT35;22147;52.388;13.390;2022-11-15T09:48:41;9.77;85.03
47757;SHT35;22147;52.388;13.390;2022-11-15T09:51:44;10.02;83.90
47757;SHT35;22147;52.388;13.390;2022-11-15T09:54:39;10.19;82.74
47757;SHT35;22147;52.388;13.390;2022-11-15T09:57:58;10.63;82.85
47757;SHT35;22147;52.388;13.390;2022-11-15T10:00:47;10.99;81.91
47757;SHT35;22147;52.388;13.390;2022-11-15T10:03:35;11.29;79.88
47757;SHT35;22147;52.388;13.390;2022-11-15T10:06:23;11.53;79.23
47757;SHT35;22147;52.388;13.390;2022-11-15T10:09:20;11.84;79.29
47757;SHT35;22147;52.388;13.390;2022-11-15T10:11:53;11.86;76.49
47757;SHT35;22147;52.388;13.390;2022-11-15T10:14:30;12.05;77.97
47757;SHT35;22147;52.388;13.390;2022-11-15T10:21:00;12.10;77.39
47757;SHT35;22147;52.388;13.390;2022-11-15T10:23:31;12.45;76.44
47757;SHT35;22147;52.388;13.390;2022-11-15T10:26:12;12.46;75.76
47757;SHT35;22147;52.388;13.390;2022-11-15T10:28:43;12.71;73.58
47757;SHT35;22147;52.388;13.390;2022-11-15T10:31:27;12.75;74.86
47757;SHT35;22147;52.388;13.390;2022-11-15T10:34:20;12.80;75.17
47757;SHT35;22147;52.388;13.390;2022-11-15T10:36:59;13.04;75.79
47757;SHT35;22147;52.388;13.390;2022-11-15T10:39:30;13.08;73.49
47757;SHT35;22147;52.388;13.390;2022-11-15T10:41:58;13.01;72.41
47757;SHT35;22147;52.388;13.390;2022-11-15T10:44:46;12.97;73.34
47757;SHT35;22147;52.388;13.390;2022-11-15T10:47:44;12.82;72.68
47757;SHT35;22147;52.388;13.390;2022-11-15T10:50:31;12.46;74.46
47757;SHT35;22147;52.388;13.390;2022-11-15T10:53:02;12.18;74.44
47757;SHT35;22147;52.388;13.390;2022-11-15T10:55:35;12.07;75.16
47757;SHT35;22147;52.388;13.390;2022-11-15T10:58:32;12.01;75.77
47757;SHT35;22147;52.388;13.390;2022-11-15T11:01:17;12.20;76.58
47757;SHT35;22147;52.388;13.390;2022-11-15T11:04:09;12.07;76.45
47757;SHT35;22147;52.388;13.390;2022-11-15T11:06:54;12.07;76.62
47757;SHT35;22147;52.388;13.390;2022-11-15T11:09:36;11.95;77.03
47757;SHT35;22147;52.388;13.390;2022-11-15T11:12:12;11.93;77.32
47757;SHT35;22147;52.388;13.390;2022-11-15T11:14:44;12.01;76.71
47757;SHT35;22147;52.388;13.390;2022-11-15T11:18:08;11.98;77.61
47757;SHT35;22147;52.388;13.390;2022-11-15T11:20:51;12.04;76.82
47757;SHT35;22147;52.388;13.390;2022-11-15T11:30:20;12.24;75.65
47757;SHT35;22147;52.388;13.390;2022-11-15T11:33:20;12.08;76.90
47757;SHT35;22147;52.388;13.390;2022-11-15T11:36:26;12.10;77.50
47757;SHT35;22147;52.388;13.390;2022-11-15T11:51:38;12.13;77.13
47757;SHT35;22147;52.388;13.390;2022-11-15T11:56:50;12.14;77.64
47757;SHT35;22147;52.388;13.390;2022-11-15T11:59:49;12.17;76.41
47757;SHT35;22147;52.388;13.390;2022-11-15T12:02:43;12.26;76.04
47757;SHT35;22147;52.388;13.390;2022-11-15T12:06:11;12.24;76.35
47757;SHT35;22147;52.388;13.390;2022-11-15T12:12:44;12.48;76.72
47757;SHT35;22147;52.388;13.390;2022-11-15T12:15:27;12.71;75.11
47757;SHT35;22147;52.388;13.390;2022-11-15T12:18:01;12.62;75.96
47757;SHT35;22147;52.388;13.390;2022-11-15T12:20:53;12.58;76.35
47757;SHT35;22147;52.388;13.390;2022-11-15T12:23:53;12.63;76.24
47757;SHT35;22147;52.388;13.390;2022-11-15T12:26:41;12.59;75.86
47757;SHT35;22147;52.388;13.390;2022-11-15T12:29:31;12.58;75.58
47757;SHT35;22147;52.388;13.390;2022-11-15T12:32:16;12.65;76.11
47757;SHT35;22147;52.388;13.390;2022-11-15T12:34:50;12.77;75.35
47757;SHT35;22147;52.388;13.390;2022-11-15T12:40:36;12.82;75.37
47757;SHT35;22147;52.388;13.390;2022-11-15T12:45:46;12.92;75.58
47757;SHT35;22147;52.388;13.390;2022-11-15T12:53:26;12.99;75.50
47757;SHT35;22147;52.388;13.390;2022-11-15T12:58:55;13.01;75.44
47757;SHT35;22147;52.388;13.390;2022-11-15T13:07:05;13.03;75.11
47757;SHT35;22147;52.388;13.390;2022-11-15T13:20:55;13.03;75.95
47757;SHT35;22147;52.388;13.390;2022-11-15T13:23:31;13.10;75.89
47757;SHT35;22147;52.388;13.390;2022-11-15T13:26:14;13.30;75.37
47757;SHT35;22147;52.388;13.390;2022-11-15T13:28:51;13.17;76.03
47757;SHT35;22147;52.388;13.390;2022-11-15T13:31:37;13.01;76.65
47757;SHT35;22147;52.388;13.390;2022-11-15T13:34:32;12.86;77.02
47757;SHT35;22147;52.388;13.390;2022-11-15T13:39:52;12.75;77.59
47757;SHT35;22147;52.388;13.390;2022-11-15T13:42:22;12.84;77.21
47757;SHT35;22147;52.388;13.390;2022-11-15T13:45:11;12.72;77.54
47757;SHT35;22147;52.388;13.390;2022-11-15T13:47:42;12.73;77.54
47757;SHT35;22147;52.388;13.390;2022-11-15T13:50:13;12.73;77.52
47757;SHT35;22147;52.388;13.390;2022-11-15T13:52:48;12.84;77.30
47757;SHT35;22147;52.388;13.390;2022-11-15T13:55:23;12.89;76.81
47757;SHT35;22147;52.388;13.390;2022-11-15T13:58:02;12.84;77.00
47757;SHT35;22147;52.388;13.390;2022-11-15T14:00:43;12.73;77.43
47757;SHT35;22147;52.388;13.390;2022-11-15T14:03:26;12.62;77.92
47757;SHT35;22147;52.388;13.390;2022-11-15T14:06:16;12.68;77.75
47757;SHT35;22147;52.388;13.390;2022-11-15T14:12:34;12.42;78.40
47757;SHT35;22147;52.388;13.390;2022-11-15T14:15:35;12.31;79.15
47757;SHT35;22147;52.388;13.390;2022-11-15T14:18:06;12.29;78.95
47757;SHT35;22147;52.388;13.390;2022-11-15T14:20:39;12.29;78.75
47757;SHT35;22147;52.388;13.390;2022-11-15T14:23:28;12.14;79.34
47757;SHT35;22147;52.388;13.390;2022-11-15T14:25:59;12.00;79.65
47757;SHT35;22147;52.388;13.390;2022-11-15T14:28:34;11.98;79.86
47757;SHT35;22147;52.388;13.390;2022-11-15T14:31:12;11.86;80.35
47757;SHT35;22147;52.388;13.390;2022-11-15T14:33:44;11.66;80.95
47757;SHT35;22147;52.388;13.390;2022-11-15T14:36:21;11.63;81.11
47757;SHT35;22147;52.388;13.390;2022-11-15T14:38:51;11.56;81.23
47757;SHT35;22147;52.388;13.390;2022-11-15T14:41:24;11.50;81.35
47757;SHT35;22147;52.388;13.390;2022-11-15T14:43:54;11.42;81.52
47757;SHT35;22147;52.388;13.390;2022-11-15T14:46:24;11.39;81.84
47757;SHT35;22147;52.388;13.390;2022-11-15T14:48:54;11.34;82.08
47757;SHT35;22147;52.388;13.390;2022-11-15T14:51:24;11.28;82.15
47757;SHT35;22147;52.388;13.390;2022-11-15T14:53:54;11.35;82.17
47757;SHT35;22147;52.388;13.390;2022-11-15T14:56:25;11.42;82.00
47757;SHT35;22147;52.388;13.390;2022-11-15T14:58:54;11.40;81.74
47757;SHT35;22147;52.388;13.390;2022-11-15T15:01:26;11.22;82.14
47757;SHT35;22147;52.388;13.390;2022-11-15T15:03:56;11.05;82.68
47757;SHT35;22147;52.388;13.390;2022-11-15T15:06:28;10.92;83.17
47757;SHT35;22147;52.388;13.390;2022-11-15T15:08:58;10.78;83.63
47757;SHT35;22147;52.388;13.390;2022-11-15T15:11:31;10.64;84.27
47757;SHT35;22147;52.388;13.390;2022-11-15T15:14:01;10.48;84.62
47757;SHT35;22147;52.388;13.390;2022-11-15T15:16:31;10.39;84.88
47757;SHT35;22147;52.388;13.390;2022-11-15T15:19:01;10.23;85.43
47757;SHT35;22147;52.388;13.390;2022-11-15T15:21:30;10.12;85.78
47757;SHT35;22147;52.388;13.390;2022-11-15T15:24:05;9.95;86.07
47757;SHT35;22147;52.388;13.390;2022-11-15T15:26:33;9.84;86.27
47757;SHT35;22147;52.388;13.390;2022-11-15T15:29:05;9.70;86.49
47757;SHT35;22147;52.388;13.390;2022-11-15T15:31:33;9.55;86.75
47757;SHT35;22147;52.388;13.390;2022-11-15T15:34:02;9.47;87.14
47757;SHT35;22147;52.388;13.390;2022-11-15T15:36:32;9.34;87.47
47757;SHT35;22147;52.388;13.390;2022-11-15T15:39:02;9.27;87.58
47757;SHT35;22147;52.388;13.390;2022-11-15T15:41:33;9.19;88.12
47757;SHT35;22147;52.388;13.390;2022-11-15T15:44:02;9.09;88.44
47757;SHT35;22147;52.388;13.390;2022-11-15T15:46:34;9.03;88.56
47757;SHT35;22147;52.388;13.390;2022-11-15T15:49:04;8.93;88.69
47757;SHT35;22147;52.388;13.390;2022-11-15T15:51:34;8.88;88.94
47757;SHT35;22147;52.388;13.390;2022-11-15T15:54:04;8.84;89.19
47757;SHT35;22147;52.388;13.390;2022-11-15T15:56:33;8.76;89.30
47757;SHT35;22147;52.388;13.390;2022-11-15T15:59:03;8.76;89.47
47757;SHT35;22147;52.388;13.390;2022-11-15T16:01:33;8.71;89.60
47757;SHT35;22147;52.388;13.390;2022-11-15T16:04:03;8.64;89.76
47757;SHT35;22147;52.388;13.390;2022-11-15T16:06:40;8.58;89.90
47757;SHT35;22147;52.388;13.390;2022-11-15T16:09:17;8.53;89.98
47757;SHT35;22147;52.388;13.390;2022-11-15T16:11:47;8.44;90.01
47757;SHT35;22147;52.388;13.390;2022-11-15T16:14:17;8.44;90.12
47757;SHT35;22147;52.388;13.390;2022-11-15T16:16:46;8.37;90.15
47757;SHT35;22147;52.388;13.390;2022-11-15T16:19:16;8.30;90.16
47757;SHT35;22147;52.388;13.390;2022-11-15T16:21:49;8.24;90.24
47757;SHT35;22147;52.388;13.390;2022-11-15T16:24:20;8.19;90.37
47757;SHT35;22147;52.388;13.390;2022-11-15T16:26:51;8.14;90.44
47757;SHT35;22147;52.388;13.390;2022-11-15T16:29:19;8.12;90.54
47757;SHT35;22147;52.388;13.390;2022-11-15T16:31:49;8.06;90.55
47757;SHT35;22147;52.388;13.390;2022-11-15T16:34:18;8.03;90.73
47757;SHT35;22147;52.388;13.390;2022-11-15T16:36:50;7.97;90.97
47757;SHT35;22147;52.388;13.390;2022-11-15T16:39:20;7.92;91.02
47757;SHT35;22147;52.388;13.390;2022-11-15T16:41:52;7.90;91.20
47757;SHT35;22147;52.388;13.390;2022-11-15T16:44:22;7.88;91.34
47757;SHT35;22147;52.388;13.390;2022-11-15T16:46:53;7.90;91.54
47757;SHT35;22147;52.388;13.390;2022-11-15T16:49:23;7.96;91.83
47757;SHT35;22147;52.388;13.390;2022-11-15T16:51:53;8.02;92.07
47757;SHT35;22147;52.388;13.390;2022-11-15T16:54:23;8.00;92.17
47757;SHT35;22147;52.388;13.390;2022-11-15T16:56:51;8.00;92.18
47757;SHT35;22147;52.388;13.390;2022-11-15T16:59:19;7.96;92.29
47757;SHT35;22147;52.388;13.390;2022-11-15T17:01:48;8.09;92.58
47757;SHT35;22147;52.388;13.390;2022-11-15T17:04:20;8.16;92.74
47757;SHT35;22147;52.388;13.390;2022-11-15T17:06:51;8.17;92.74
47757;SHT35;22147;52.388;13.390;2022-11-15T17:09:23;8.22;92.74
47757;SHT35;22147;52.388;13.390;2022-11-15T17:11:52;8.26;92.70
47757;SHT35;22147;52.388;13.390;2022-11-15T17:14:22;8.20;92.65
47757;SHT35;22147;52.388;13.390;2022-11-15T17:16:52;8.30;92.74
47757;SHT35;22147;52.388;13.390;2022-11-15T17:19:22;8.27;92.69
47757;SHT35;22147;52.388;13.390;2022-11-15T17:21:52;8.27;92.73
47757;SHT35;22147;52.388;13.390;2022-11-15T17:24:22;8.23;92.77
47757;SHT35;22147;52.388;13.390;2022-11-15T17:26:52;8.30;92.94
47757;SHT35;22147;52.388;13.390;2022-11-15T17:29:22;8.38;93.04
47757;SHT35;22147;52.388;13.390;2022-11-15T17:31:52;8.41;93.05
47757;SHT35;22147;52.388;13.390;2022-11-15T17:34:22;8.37;93.01
47757;SHT35;22147;52.388;13.390;2022-11-15T17:36:51;8.30;92.95
47757;SHT35;22147;52.388;13.390;2022-11-15T17:39:21;8.22;92.92
47757;SHT35;22147;52.388;13.390;2022-11-15T17:41:52;8.12;92.92
47757;SHT35;22147;52.388;13.390;2022-11-15T17:44:22;8.06;92.98
47757;SHT35;22147;52.388;13.390;2022-11-15T17:46:52;8.02;93.20
47757;SHT35;22147;52.388;13.390;2022-11-15T17:49:22;8.05;93.42
47757;SHT35;22147;52.388;13.390;2022-11-15T17:51:52;8.16;93.64
47757;SHT35;22147;52.388;13.390;2022-11-15T17:54:22;8.12;93.58